Oljato, Arizona
Current Conditions -  °F | °C
As of 6:35 PM on Wednesday 22 Oct 2014 (Local Time) from KBDG Reporting Station
Clear Clear  
Wind Chill: 64°   Ceiling: Unl
Heat Index: 64°   Visibility: 10mi
Dew Point: 29°   Wind: 6mph
Humidity: 27%   Direction: 230°SW
Pressure: 30.24"   Gusts: NA
Location:  36.6859°N, 110.268°W
Report Text: KBDG 230035Z AUTO 23005KT 10SM CLR 18/M01 A3024 RMK AO1 T01761015
Loading
Personal Weather Stations






























Interactive Weather Map
Tropical Storm Tracking
New forecast layout! Learn more

10-Day Weather Forecast

Advertisements
Track Severe Weather on mobile